Daytona Beach, Florida
Current Conditions -  °F | °C
As of 7:53 PM on Saturday 20 Dec 2014 (Local Time) from KDAB Reporting Station
Scattered Clouds Scattered Clouds  
Wind Chill: 64°   Ceiling: Unl
Heat Index: 64°   Visibility: 9mi
Dew Point: 62°   Wind: 3mph
Humidity: 93%   Direction: 10°N
Pressure: 30.1"   Gusts: NA
Location:  29.2°N, 81.04°W
Report Text: KDAB 210053Z 01003KT 9SM SCT110 18/17 A3010 RMK AO2 SLP192 T01780167
Loading
Personal Weather Stations






























Interactive Weather Map New forecast layout! Learn more

10-Day Weather Forecast

Advertisements
Track Severe Weather on mobile